createdAt,value
2018-11-20T00:01:50.408Z,99.90
2018-11-20T00:08:03.930Z,99.90
2018-11-20T00:14:17.256Z,99.90
2018-11-20T00:17:24.560Z,99.90
2018-11-20T00:20:31.867Z,99.90
2018-11-20T00:23:39.143Z,99.90
2018-11-20T00:26:46.447Z,99.90
2018-11-20T00:29:53.752Z,99.90
2018-11-20T00:33:01.031Z,99.90
2018-11-20T00:36:08.330Z,99.90
2018-11-20T00:39:07.468Z,99.90
2018-11-20T00:42:14.737Z,99.90
2018-11-20T00:45:22.044Z,99.90
2018-11-20T00:48:29.332Z,99.90
2018-11-20T00:51:36.629Z,99.90
2018-11-20T00:54:43.944Z,99.90
2018-11-20T00:57:51.210Z,99.90
2018-11-20T01:00:58.515Z,99.90
2018-11-20T01:04:05.796Z,99.90
2018-11-20T01:07:13.114Z,99.90
2018-11-20T01:10:20.440Z,99.90
2018-11-20T01:13:27.719Z,99.90
2018-11-20T01:16:35.034Z,99.90
2018-11-20T01:19:42.356Z,99.90
2018-11-20T01:22:49.657Z,99.90
2018-11-20T01:25:56.955Z,99.90
2018-11-20T01:28:55.187Z,99.70
2018-11-20T01:32:02.492Z,99.30
2018-11-20T01:35:09.800Z,98.90
2018-11-20T01:38:17.068Z,98.70
2018-11-20T01:41:24.512Z,98.40
2018-11-20T01:44:31.718Z,98.30
2018-11-20T01:47:39.013Z,98.20
2018-11-20T01:50:46.315Z,98.20
2018-11-20T01:53:53.595Z,98.40
2018-11-20T01:57:00.894Z,97.90
2018-11-20T02:00:08.194Z,98.10
2018-11-20T02:03:15.479Z,98.10
2018-11-20T02:06:22.775Z,98.10
2018-11-20T02:09:30.052Z,97.80
2018-11-20T02:12:37.356Z,97.70
2018-11-20T02:15:44.654Z,97.70
2018-11-20T02:18:51.926Z,97.40
2018-11-20T02:25:08.575Z,97.20
2018-11-20T02:28:15.876Z,97.00
2018-11-20T02:31:23.174Z,96.80
2018-11-20T02:34:30.650Z,96.80
2018-11-20T02:37:37.940Z,96.80
2018-11-20T02:43:50.395Z,96.70
2018-11-20T02:46:57.689Z,96.80
2018-11-20T02:50:04.970Z,96.70
2018-11-20T02:53:12.336Z,96.60
2018-11-20T02:56:19.651Z,96.80
2018-11-20T02:59:26.930Z,96.80
2018-11-20T03:02:34.225Z,96.80
2018-11-20T03:05:41.525Z,96.80
2018-11-20T03:08:48.802Z,97.00
2018-11-20T03:11:56.104Z,97.20
2018-11-20T03:15:03.386Z,97.30
2018-11-20T03:18:10.690Z,97.60
2018-11-20T03:21:06.836Z,97.40
2018-11-20T03:24:14.113Z,97.40
2018-11-20T03:27:21.409Z,97.30
2018-11-20T03:30:47.705Z,97.30
2018-11-20T03:33:55.025Z,97.20
2018-11-20T03:37:02.322Z,97.20
2018-11-20T03:40:09.603Z,97.20
2018-11-20T03:43:16.899Z,97.20
2018-11-20T03:46:24.205Z,97.10
2018-11-20T03:49:31.480Z,97.20
2018-11-20T03:52:38.778Z,97.30
2018-11-20T03:55:46.078Z,97.10
2018-11-20T03:58:53.377Z,96.90
2018-11-20T04:02:00.674Z,97.00
2018-11-20T04:05:07.966Z,96.90
2018-11-20T04:08:15.280Z,96.90
2018-11-20T04:11:22.580Z,96.90
2018-11-20T04:14:29.880Z,96.90
2018-11-20T04:17:37.202Z,96.90
2018-11-20T04:20:44.476Z,97.00
2018-11-20T04:23:51.778Z,96.90
2018-11-20T04:26:57.591Z,96.90
2018-11-20T04:30:04.891Z,97.00
2018-11-20T04:33:31.188Z,96.80
2018-11-20T04:36:38.498Z,97.20
2018-11-20T04:39:45.769Z,96.90
2018-11-20T04:42:49.685Z,96.90
2018-11-20T04:45:52.548Z,96.90
2018-11-20T04:48:50.952Z,96.90
2018-11-20T04:51:58.250Z,96.70
2018-11-20T04:55:05.529Z,96.80
2018-11-20T04:58:12.822Z,96.80
2018-11-20T05:01:20.108Z,96.50
2018-11-20T05:04:27.402Z,96.50
2018-11-20T05:07:34.708Z,96.40
2018-11-20T05:10:41.984Z,96.30
2018-11-20T05:13:49.278Z,96.20
2018-11-20T05:16:56.598Z,96.30
2018-11-20T05:20:03.873Z,96.20
2018-11-20T05:23:11.168Z,96.20
2018-11-20T05:26:18.450Z,96.30
2018-11-20T05:29:25.766Z,96.30
2018-11-20T05:32:33.063Z,96.30
2018-11-20T05:35:40.335Z,96.20
2018-11-20T05:38:47.645Z,96.30
2018-11-20T05:41:54.942Z,96.40
2018-11-20T05:45:02.235Z,96.60
2018-11-20T05:48:09.541Z,96.60
2018-11-20T05:51:16.833Z,96.60
2018-11-20T05:54:24.130Z,96.60
2018-11-20T05:57:31.431Z,96.70
2018-11-20T06:00:33.613Z,96.80
2018-11-20T06:03:40.933Z,96.90
2018-11-20T06:06:48.208Z,96.90
2018-11-20T06:09:55.516Z,97.00
2018-11-20T06:13:02.810Z,96.80
2018-11-20T06:16:10.083Z,96.90
2018-11-20T06:19:17.386Z,96.80
2018-11-20T06:22:16.883Z,96.80
2018-11-20T06:25:04.272Z,96.70
2018-11-20T06:28:04.287Z,96.80
2018-11-20T06:31:04.116Z,96.70
2018-11-20T06:33:55.987Z,96.60
2018-11-20T06:36:55.747Z,96.40
2018-11-20T06:46:00.511Z,96.50
2018-11-20T06:49:00.037Z,96.60
2018-11-20T06:51:53.319Z,96.50
2018-11-20T06:54:52.809Z,96.50
2018-11-20T06:57:52.568Z,96.40
2018-11-20T07:00:52.584Z,96.40
2018-11-20T07:03:52.146Z,96.30
2018-11-20T07:06:52.414Z,96.30
2018-11-20T07:09:52.316Z,96.30
2018-11-20T07:12:52.159Z,96.20
2018-11-20T07:15:52.271Z,96.30
2018-11-20T07:18:54.959Z,96.20
2018-11-20T07:22:01.060Z,96.20
2018-11-20T07:24:56.124Z,96.00
2018-11-20T07:27:55.849Z,96.10
2018-11-20T07:30:55.700Z,96.10
2018-11-20T07:33:55.597Z,95.90
2018-11-20T07:36:55.636Z,96.00
2018-11-20T07:39:55.315Z,95.80
2018-11-20T07:42:55.561Z,95.70
2018-11-20T07:45:50.107Z,95.80
2018-11-20T07:48:45.803Z,95.80
2018-11-20T07:51:48.007Z,95.80
2018-11-20T07:54:47.442Z,95.70
2018-11-20T07:57:50.273Z,95.60
2018-11-20T08:00:49.896Z,95.60
2018-11-20T08:03:38.210Z,95.60
2018-11-20T08:06:45.499Z,95.70
2018-11-20T08:09:40.424Z,95.70
2018-11-20T08:12:37.696Z,95.80
2018-11-20T08:15:33.628Z,95.80
2018-11-20T08:18:40.838Z,95.80
2018-11-20T08:21:48.134Z,95.90
2018-11-20T08:24:55.434Z,96.10
2018-11-20T08:28:02.728Z,96.10
2018-11-20T08:31:10.091Z,96.20
2018-11-20T08:34:17.363Z,96.30
2018-11-20T08:37:24.593Z,96.60
2018-11-20T08:40:31.890Z,96.40
2018-11-20T08:43:39.198Z,96.60
2018-11-20T08:46:46.476Z,96.40
2018-11-20T08:49:53.782Z,96.40
2018-11-20T08:53:01.163Z,96.40
2018-11-20T08:56:08.372Z,96.60
2018-11-20T08:59:15.670Z,96.50
2018-11-20T09:02:23.055Z,96.50
2018-11-20T09:05:20.577Z,96.70
2018-11-20T09:08:19.373Z,96.60
2018-11-20T09:11:26.648Z,96.60
2018-11-20T09:14:33.946Z,96.70
2018-11-20T09:17:41.243Z,96.50
2018-11-20T09:20:48.542Z,96.50
2018-11-20T09:24:25.540Z,96.60
2018-11-20T09:27:21.939Z,96.40
2018-11-20T09:30:22.273Z,96.40
2018-11-20T09:33:22.429Z,96.40
2018-11-20T09:39:09.164Z,96.20
2018-11-20T09:42:16.058Z,96.50
2018-11-20T09:45:42.341Z,96.40
2018-11-20T09:48:49.239Z,96.40
2018-11-20T09:51:56.117Z,96.40
2018-11-20T09:55:03.020Z,96.30
2018-11-20T09:58:09.889Z,96.30
2018-11-20T10:04:21.417Z,96.10
2018-11-20T10:07:28.285Z,96.20
2018-11-20T10:10:35.173Z,96.30
2018-11-20T10:13:35.058Z,96.10
2018-11-20T10:16:41.953Z,96.00
2018-11-20T10:19:48.868Z,96.00
2018-11-20T10:22:55.737Z,95.90
2018-11-20T10:26:02.787Z,95.90
2018-11-20T10:29:09.606Z,95.90
2018-11-20T10:32:14.949Z,95.80
2018-11-20T10:35:21.861Z,95.80
2018-11-20T10:38:28.732Z,95.80
2018-11-20T10:41:35.869Z,95.90
2018-11-20T10:44:42.757Z,95.80
2018-11-20T10:47:49.633Z,95.70
2018-11-20T10:50:56.541Z,95.80
2018-11-20T10:54:03.410Z,95.70
2018-11-20T10:57:10.307Z,95.90
2018-11-20T11:00:17.264Z,96.00
2018-11-20T11:03:24.117Z,96.00
2018-11-20T11:06:31.217Z,96.00
2018-11-20T11:09:21.643Z,96.00
2018-11-20T11:12:28.567Z,95.90
2018-11-20T11:15:35.419Z,95.90
2018-11-20T11:18:42.298Z,96.10
2018-11-20T11:21:49.191Z,96.00
2018-11-20T11:24:56.092Z,95.80
2018-11-20T11:28:02.968Z,95.90
2018-11-20T11:31:09.869Z,95.80
2018-11-20T11:34:16.763Z,95.80
2018-11-20T11:37:23.984Z,95.80
2018-11-20T11:40:30.905Z,95.90
2018-11-20T11:43:37.812Z,95.90
2018-11-20T11:46:44.704Z,96.00
2018-11-20T11:49:51.599Z,96.10
2018-11-20T11:52:58.476Z,96.10
2018-11-20T11:56:05.404Z,96.20
2018-11-20T11:59:12.296Z,96.10
2018-11-20T12:05:25.395Z,96.20
2018-11-20T12:08:32.270Z,96.20
2018-11-20T12:11:39.167Z,96.10
2018-11-20T12:14:46.062Z,96.20
2018-11-20T12:17:52.946Z,96.30
2018-11-20T12:20:49.177Z,96.20
2018-11-20T12:23:56.104Z,96.30
2018-11-20T12:27:04.426Z,96.40
2018-11-20T12:30:09.891Z,96.50
2018-11-20T12:33:16.784Z,96.40
2018-11-20T12:39:25.917Z,96.30
2018-11-20T12:42:32.836Z,96.50
2018-11-20T12:45:45.745Z,96.50
2018-11-20T12:48:52.618Z,96.50
2018-11-20T12:51:49.040Z,96.30
2018-11-20T12:54:55.635Z,96.30
2018-11-20T12:57:43.099Z,96.40
2018-11-20T13:00:49.990Z,96.40
2018-11-20T13:03:56.897Z,96.40
2018-11-20T13:07:05.204Z,96.30
2018-11-20T13:10:10.661Z,96.40
2018-11-20T13:13:18.126Z,96.30
2018-11-20T13:16:24.454Z,96.40
2018-11-20T13:19:33.261Z,96.40
2018-11-20T13:22:39.653Z,96.40
2018-11-20T13:25:45.151Z,96.50
2018-11-20T13:28:52.023Z,96.40
2018-11-20T13:31:58.916Z,96.50
2018-11-20T13:35:05.789Z,96.40
2018-11-20T13:38:13.816Z,96.50
2018-11-20T13:41:39.949Z,96.50
2018-11-20T13:44:47.059Z,96.50
2018-11-20T13:47:54.006Z,96.60
2018-11-20T13:51:03.179Z,96.40
2018-11-20T13:54:11.814Z,96.30
2018-11-20T13:57:16.905Z,96.40
2018-11-20T14:00:23.891Z,96.50
2018-11-20T14:03:30.855Z,96.60
2018-11-20T14:06:37.760Z,96.60
2018-11-20T14:09:44.672Z,96.50
2018-11-20T14:12:51.609Z,96.50
2018-11-20T14:15:58.545Z,96.60
2018-11-20T14:19:05.471Z,96.60
2018-11-20T14:22:12.363Z,96.60
2018-11-20T14:25:19.384Z,96.70
2018-11-20T14:28:26.280Z,96.70
2018-11-20T14:31:33.180Z,96.50
2018-11-20T14:34:40.074Z,96.90
2018-11-20T14:37:46.991Z,96.50
2018-11-20T14:40:53.906Z,96.50
2018-11-20T14:44:00.789Z,96.60
2018-11-20T14:47:07.709Z,96.60
2018-11-20T14:50:14.580Z,96.60
2018-11-20T14:53:21.483Z,96.60
2018-11-20T14:56:28.376Z,96.60
2018-11-20T14:59:35.240Z,96.80
2018-11-20T15:02:42.134Z,96.90
2018-11-20T15:05:49.003Z,97.20
2018-11-20T15:08:55.899Z,97.70
2018-11-20T15:12:02.800Z,98.10
2018-11-20T15:15:09.675Z,98.60
2018-11-20T15:18:16.568Z,99.10
2018-11-20T15:21:23.466Z,99.40
2018-11-20T15:24:30.342Z,99.80
2018-11-20T15:27:37.241Z,99.90
2018-11-20T15:30:35.908Z,99.90
2018-11-20T15:33:42.907Z,99.90
2018-11-20T15:36:42.736Z,99.90
2018-11-20T15:39:48.507Z,99.90
2018-11-20T15:42:55.472Z,99.90
2018-11-20T15:49:34.845Z,99.90
2018-11-20T15:52:23.717Z,99.90
2018-11-20T15:55:30.788Z,99.90
2018-11-20T15:58:37.741Z,99.90
2018-11-20T16:01:44.893Z,99.90
2018-11-20T16:04:51.776Z,99.90
2018-11-20T16:07:57.143Z,99.90
2018-11-20T16:11:04.020Z,99.90
2018-11-20T16:14:10.936Z,99.90
2018-11-20T16:17:17.870Z,99.90
2018-11-20T16:20:25.538Z,99.90
2018-11-20T16:23:32.488Z,99.90
2018-11-20T16:26:39.342Z,99.90
2018-11-20T16:29:46.283Z,99.90
2018-11-20T16:32:53.227Z,99.90
2018-11-20T16:36:02.983Z,99.90
2018-11-20T16:39:07.033Z,99.90
2018-11-20T16:42:13.971Z,99.90
2018-11-20T16:45:20.890Z,99.90
2018-11-20T16:48:27.787Z,99.90
2018-11-20T16:51:34.659Z,99.90
2018-11-20T16:54:41.568Z,99.90
2018-11-20T16:57:47.217Z,99.90
2018-11-20T17:00:47.223Z,99.90
2018-11-20T17:03:53.376Z,99.90
2018-11-20T17:06:53.314Z,99.90
2018-11-20T17:09:59.558Z,99.90
2018-11-20T17:12:59.526Z,99.90
2018-11-20T17:15:59.143Z,99.90
2018-11-20T17:18:59.087Z,99.90
2018-11-20T17:21:58.858Z,99.90
2018-11-20T17:24:58.822Z,99.90
2018-11-20T17:28:01.997Z,99.90
2018-11-20T17:31:01.850Z,99.90
2018-11-20T17:34:04.284Z,99.90
2018-11-20T17:37:04.544Z,99.90
2018-11-20T17:40:05.092Z,99.90
2018-11-20T17:43:10.706Z,99.90
2018-11-20T17:45:57.980Z,99.90
2018-11-20T17:48:58.133Z,99.90
2018-11-20T17:52:04.444Z,99.90
2018-11-20T17:55:04.425Z,99.90
2018-11-20T17:58:10.439Z,99.90
2018-11-20T18:01:10.777Z,99.90
2018-11-20T18:04:06.067Z,99.90
2018-11-20T18:07:06.084Z,99.90
2018-11-20T18:09:54.851Z,99.90
2018-11-20T18:12:50.360Z,99.90
2018-11-20T18:15:50.465Z,99.90
2018-11-20T18:18:50.551Z,99.90
2018-11-20T18:21:50.503Z,99.90
2018-11-20T18:24:50.300Z,99.90
2018-11-20T18:27:50.311Z,99.90
2018-11-20T18:30:55.722Z,99.90
2018-11-20T18:33:55.985Z,99.90
2018-11-20T18:36:48.770Z,99.90
2018-11-20T18:39:48.654Z,99.90
2018-11-20T18:42:48.826Z,99.90
2018-11-20T18:45:48.599Z,99.90
2018-11-20T18:51:52.998Z,99.90
2018-11-20T18:54:52.980Z,99.90
2018-11-20T18:57:53.013Z,99.90
2018-11-20T19:00:53.100Z,99.90
2018-11-20T19:03:53.232Z,99.90
2018-11-20T19:06:53.204Z,99.90
2018-11-20T19:09:52.937Z,99.90
2018-11-20T19:12:52.857Z,99.90
2018-11-20T19:15:52.400Z,99.90
2018-11-20T19:18:58.251Z,99.90
2018-11-20T19:21:58.213Z,99.90
2018-11-20T19:24:57.781Z,99.90
2018-11-20T19:27:47.753Z,99.90
2018-11-20T19:30:47.628Z,99.90
2018-11-20T19:33:47.381Z,99.90
2018-11-20T19:36:47.110Z,99.90
2018-11-20T19:39:47.370Z,99.90
2018-11-20T19:42:38.060Z,99.90
2018-11-20T19:45:37.572Z,99.90
2018-11-20T19:48:37.280Z,99.90
2018-11-20T19:51:37.281Z,99.90
2018-11-20T19:54:37.064Z,99.90
2018-11-20T19:57:37.065Z,99.90
2018-11-20T20:00:37.011Z,99.90
2018-11-20T20:03:37.153Z,99.90
2018-11-20T20:06:36.851Z,99.90
2018-11-20T20:09:36.505Z,99.90
2018-11-20T20:12:36.322Z,99.90
2018-11-20T20:15:39.557Z,99.90
2018-11-20T20:18:46.010Z,99.90
2018-11-20T20:21:45.488Z,99.90
2018-11-20T20:24:45.137Z,99.90
2018-11-20T20:27:45.101Z,99.90
2018-11-20T20:30:45.117Z,99.90
2018-11-20T20:33:45.389Z,99.90
2018-11-20T20:36:45.066Z,99.90
2018-11-20T20:39:51.505Z,99.90
2018-11-20T20:42:51.281Z,99.90
2018-11-20T20:45:50.883Z,99.90
2018-11-20T20:48:51.051Z,99.90
2018-11-20T20:51:44.373Z,99.90
2018-11-20T20:54:43.910Z,99.90
2018-11-20T20:57:33.973Z,99.90
2018-11-20T21:00:34.209Z,99.90
2018-11-20T21:03:33.909Z,99.90
2018-11-20T21:06:33.751Z,99.90
2018-11-20T21:09:33.358Z,99.90
2018-11-20T21:12:33.031Z,99.90
2018-11-20T21:15:36.240Z,99.90
2018-11-20T21:18:36.441Z,99.90
2018-11-20T21:21:36.613Z,99.90
2018-11-20T21:24:23.704Z,99.90
2018-11-20T21:27:23.805Z,99.90
2018-11-20T21:30:24.001Z,99.90
2018-11-20T21:33:29.359Z,99.90
2018-11-20T21:36:16.895Z,99.90
2018-11-20T21:39:17.122Z,99.90
2018-11-20T21:42:07.039Z,99.90
2018-11-20T21:45:07.244Z,99.90
2018-11-20T21:48:07.605Z,99.90
2018-11-20T21:51:07.186Z,99.90
2018-11-20T21:54:07.475Z,99.90
2018-11-20T21:57:07.148Z,99.90
2018-11-20T22:00:10.237Z,99.90
2018-11-20T22:03:10.535Z,99.90
2018-11-20T22:06:10.408Z,99.90
2018-11-20T22:09:16.318Z,99.90
2018-11-20T22:12:16.393Z,99.90
2018-11-20T22:15:19.403Z,99.90
2018-11-20T22:18:19.481Z,99.90
2018-11-20T22:21:21.943Z,99.90
2018-11-20T22:24:21.441Z,99.90
2018-11-20T22:27:24.206Z,99.90
2018-11-20T22:30:11.261Z,99.90
2018-11-20T22:33:11.059Z,99.90
2018-11-20T22:36:14.518Z,99.90
2018-11-20T22:39:03.801Z,99.90
2018-11-20T22:42:06.961Z,99.90
2018-11-20T22:45:06.485Z,99.90
2018-11-20T22:48:06.196Z,99.90
2018-11-20T22:51:06.251Z,99.90
2018-11-20T22:54:05.805Z,99.90
2018-11-20T22:57:12.038Z,99.90
2018-11-20T23:00:14.927Z,99.90
2018-11-20T23:03:04.426Z,99.90
2018-11-20T23:06:04.685Z,99.90
2018-11-20T23:08:45.643Z,99.90
2018-11-20T23:11:26.873Z,99.90
2018-11-20T23:14:07.899Z,99.90
2018-11-20T23:16:48.853Z,99.90
2018-11-20T23:19:30.033Z,99.90
2018-11-20T23:22:10.810Z,99.90
2018-11-20T23:24:51.144Z,99.90
2018-11-20T23:27:31.815Z,99.90
2018-11-20T23:30:13.866Z,99.90
2018-11-20T23:32:54.898Z,99.90
2018-11-20T23:35:36.019Z,99.90
2018-11-20T23:38:16.350Z,99.90
2018-11-20T23:40:57.042Z,99.90
2018-11-20T23:43:37.666Z,99.90
2018-11-20T23:46:18.030Z,99.90
2018-11-20T23:48:58.618Z,99.90
2018-11-20T23:51:39.180Z,99.90
2018-11-20T23:54:20.349Z,99.90
2018-11-20T23:57:00.771Z,99.90
2018-11-20T23:59:41.690Z,99.90
